sensor_id;sensor_type;location;lat;lon;timestamp;pressure;altitude;pressure_sealevel;temperature;humidity
70103;BME280;57470;50.034;15.256;2022-12-13T00:01:33;99108.28;;;-4.50;90.23
70103;BME280;57470;50.034;15.256;2022-12-13T00:04:02;99105.59;;;-4.43;90.20
70103;BME280;57470;50.034;15.256;2022-12-13T00:06:29;99108.16;;;-4.41;89.64
70103;BME280;57470;50.034;15.256;2022-12-13T00:08:56;99109.81;;;-4.37;89.65
70103;BME280;57470;50.034;15.256;2022-12-13T00:11:21;99109.88;;;-4.40;90.23
70103;BME280;57470;50.034;15.256;2022-12-13T00:13:47;99111.75;;;-4.48;89.69
70103;BME280;57470;50.034;15.256;2022-12-13T00:16:15;99108.09;;;-4.38;89.72
70103;BME280;57470;50.034;15.256;2022-12-13T00:18:45;99110.78;;;-4.43;89.72
70103;BME280;57470;50.034;15.256;2022-12-13T00:21:13;99100.47;;;-4.47;89.95
70103;BME280;57470;50.034;15.256;2022-12-13T00:23:38;99100.56;;;-4.55;89.85
70103;BME280;57470;50.034;15.256;2022-12-13T00:26:10;99103.91;;;-4.47;89.67
70103;BME280;57470;50.034;15.256;2022-12-13T00:28:36;99104.81;;;-4.48;89.60
70103;BME280;57470;50.034;15.256;2022-12-13T00:31:02;99100.63;;;-4.58;90.44
70103;BME280;57470;50.034;15.256;2022-12-13T00:33:27;99098.16;;;-4.69;89.72
70103;BME280;57470;50.034;15.256;2022-12-13T00:35:53;99102.47;;;-4.66;90.07
70103;BME280;57470;50.034;15.256;2022-12-13T00:38:19;99102.50;;;-4.69;88.62
70103;BME280;57470;50.034;15.256;2022-12-13T00:40:44;99109.44;;;-4.73;88.95
70103;BME280;57470;50.034;15.256;2022-12-13T00:43:10;99099.16;;;-4.79;89.32
70103;BME280;57470;50.034;15.256;2022-12-13T00:45:35;99113.09;;;-4.86;89.24
70103;BME280;57470;50.034;15.256;2022-12-13T00:48:03;99106.03;;;-4.75;89.19
70103;BME280;57470;50.034;15.256;2022-12-13T00:50:28;99104.69;;;-5.06;88.28
70103;BME280;57470;50.034;15.256;2022-12-13T00:52:53;99109.13;;;-5.14;88.72
70103;BME280;57470;50.034;15.256;2022-12-13T00:55:19;99118.72;;;-5.22;89.69
70103;BME280;57470;50.034;15.256;2022-12-13T00:57:44;99110.00;;;-5.15;88.83
70103;BME280;57470;50.034;15.256;2022-12-13T01:00:10;99114.53;;;-5.34;89.51
70103;BME280;57470;50.034;15.256;2022-12-13T01:02:36;99118.88;;;-5.38;89.20
70103;BME280;57470;50.034;15.256;2022-12-13T01:05:02;99119.78;;;-5.40;89.59
70103;BME280;57470;50.034;15.256;2022-12-13T01:07:27;99118.88;;;-5.38;89.04
70103;BME280;57470;50.034;15.256;2022-12-13T01:09:52;99117.13;;;-5.36;87.69
70103;BME280;57470;50.034;15.256;2022-12-13T01:12:18;99112.84;;;-5.40;87.46
70103;BME280;57470;50.034;15.256;2022-12-13T01:14:43;99117.41;;;-5.63;87.16
70103;BME280;57470;50.034;15.256;2022-12-13T01:17:09;99114.00;;;-5.70;87.49
70103;BME280;57470;50.034;15.256;2022-12-13T01:19:35;99112.34;;;-5.74;87.29
70103;BME280;57470;50.034;15.256;2022-12-13T01:22:04;99114.25;;;-5.91;87.28
70103;BME280;57470;50.034;15.256;2022-12-13T01:24:30;99118.41;;;-5.79;87.39
70103;BME280;57470;50.034;15.256;2022-12-13T01:26:56;99103.91;;;-5.94;87.15
70103;BME280;57470;50.034;15.256;2022-12-13T01:29:22;99110.03;;;-5.99;87.68
70103;BME280;57470;50.034;15.256;2022-12-13T01:31:49;99110.88;;;-6.00;87.60
70103;BME280;57470;50.034;15.256;2022-12-13T01:34:17;99108.31;;;-6.02;88.04
70103;BME280;57470;50.034;15.256;2022-12-13T01:36:44;99100.38;;;-5.87;87.13
70103;BME280;57470;50.034;15.256;2022-12-13T01:39:12;99108.25;;;-5.99;87.17
70103;BME280;57470;50.034;15.256;2022-12-13T01:41:38;99091.41;;;-6.52;88.27
70103;BME280;57470;50.034;15.256;2022-12-13T01:47:07;99095.34;;;-6.02;87.59
70103;BME280;57470;50.034;15.256;2022-12-13T01:49:32;99101.47;;;-6.11;87.78
70103;BME280;57470;50.034;15.256;2022-12-13T01:52:02;99103.19;;;-6.11;88.17
70103;BME280;57470;50.034;15.256;2022-12-13T01:54:33;99111.03;;;-6.19;87.21
70103;BME280;57470;50.034;15.256;2022-12-13T01:57:04;99115.22;;;-6.07;87.56
70103;BME280;57470;50.034;15.256;2022-12-13T01:59:33;99112.69;;;-6.13;87.49
70103;BME280;57470;50.034;15.256;2022-12-13T02:02:00;99118.78;;;-6.19;87.55
70103;BME280;57470;50.034;15.256;2022-12-13T02:04:30;99118.81;;;-6.25;87.11
70103;BME280;57470;50.034;15.256;2022-12-13T02:06:58;99116.09;;;-6.08;88.23
70103;BME280;57470;50.034;15.256;2022-12-13T02:09:24;99115.16;;;-5.96;87.88
70103;BME280;57470;50.034;15.256;2022-12-13T02:11:50;99124.53;;;-5.86;88.25
70103;BME280;57470;50.034;15.256;2022-12-13T02:14:16;99121.06;;;-5.85;88.45
70103;BME280;57470;50.034;15.256;2022-12-13T02:16:48;99124.56;;;-5.89;88.49
70103;BME280;57470;50.034;15.256;2022-12-13T02:22:39;99115.72;;;-5.67;88.85
70103;BME280;57470;50.034;15.256;2022-12-13T02:30:25;99102.63;;;-5.52;89.67
70103;BME280;57470;50.034;15.256;2022-12-13T02:33:05;99110.34;;;-5.47;89.97
70103;BME280;57470;50.034;15.256;2022-12-13T02:35:43;99113.72;;;-5.38;90.30
70103;BME280;57470;50.034;15.256;2022-12-13T02:43:55;99118.00;;;-5.37;91.43
70103;BME280;57470;50.034;15.256;2022-12-13T02:46:24;99109.22;;;-5.25;90.90
70103;BME280;57470;50.034;15.256;2022-12-13T02:48:51;99107.50;;;-5.23;91.37
70103;BME280;57470;50.034;15.256;2022-12-13T02:51:20;99105.53;;;-5.01;91.23
70103;BME280;57470;50.034;15.256;2022-12-13T02:53:48;99102.09;;;-5.05;91.36
70103;BME280;57470;50.034;15.256;2022-12-13T02:56:14;99102.88;;;-4.98;91.42
70103;BME280;57470;50.034;15.256;2022-12-13T02:58:48;99100.16;;;-4.89;91.01
70103;BME280;57470;50.034;15.256;2022-12-13T03:04:02;99094.00;;;-4.82;91.80
70103;BME280;57470;50.034;15.256;2022-12-13T03:10:01;99095.56;;;-4.69;91.58
70103;BME280;57470;50.034;15.256;2022-12-13T03:12:39;99099.69;;;-4.54;91.58
70103;BME280;57470;50.034;15.256;2022-12-13T03:15:32;99092.09;;;-4.66;91.77
70103;BME280;57470;50.034;15.256;2022-12-13T03:18:13;99084.19;;;-4.59;91.65
70103;BME280;57470;50.034;15.256;2022-12-13T03:20:47;99090.16;;;-4.54;91.56
70103;BME280;57470;50.034;15.256;2022-12-13T03:23:14;99086.84;;;-4.63;91.43
70103;BME280;57470;50.034;15.256;2022-12-13T03:25:40;99085.09;;;-4.61;91.20
70103;BME280;57470;50.034;15.256;2022-12-13T03:28:06;99093.72;;;-4.61;91.10
70103;BME280;57470;50.034;15.256;2022-12-13T03:30:32;99084.13;;;-4.56;91.36
70103;BME280;57470;50.034;15.256;2022-12-13T03:32:58;99080.53;;;-4.45;91.16
70103;BME280;57470;50.034;15.256;2022-12-13T03:35:24;99074.53;;;-4.49;90.84
70103;BME280;57470;50.034;15.256;2022-12-13T03:37:50;99083.09;;;-4.44;91.18
70103;BME280;57470;50.034;15.256;2022-12-13T03:40:16;99068.50;;;-4.51;91.73
70103;BME280;57470;50.034;15.256;2022-12-13T03:42:42;99074.41;;;-4.40;91.00
70103;BME280;57470;50.034;15.256;2022-12-13T03:45:07;99075.28;;;-4.41;91.59
70103;BME280;57470;50.034;15.256;2022-12-13T03:47:33;99073.56;;;-4.42;91.55
70103;BME280;57470;50.034;15.256;2022-12-13T03:49:58;99070.06;;;-4.39;91.58
70103;BME280;57470;50.034;15.256;2022-12-13T03:52:24;99070.84;;;-4.34;91.59
70103;BME280;57470;50.034;15.256;2022-12-13T03:54:49;99067.50;;;-4.41;91.82
70103;BME280;57470;50.034;15.256;2022-12-13T03:57:14;99068.03;;;-4.77;91.95
70103;BME280;57470;50.034;15.256;2022-12-13T03:59:40;99065.22;;;-4.64;92.62
70103;BME280;57470;50.034;15.256;2022-12-13T04:02:05;99078.09;;;-4.56;92.21
70103;BME280;57470;50.034;15.256;2022-12-13T04:04:31;99073.00;;;-4.62;91.72
70103;BME280;57470;50.034;15.256;2022-12-13T04:06:56;99076.56;;;-4.69;90.53
70103;BME280;57470;50.034;15.256;2022-12-13T04:09:21;99063.84;;;-4.89;89.84
70103;BME280;57470;50.034;15.256;2022-12-13T04:11:47;99074.19;;;-4.86;89.63
70103;BME280;57470;50.034;15.256;2022-12-13T04:14:31;99073.53;;;-5.02;89.55
70103;BME280;57470;50.034;15.256;2022-12-13T04:16:57;99070.78;;;-4.91;89.48
70103;BME280;57470;50.034;15.256;2022-12-13T04:19:22;99074.44;;;-5.04;89.56
70103;BME280;57470;50.034;15.256;2022-12-13T04:21:47;99070.09;;;-5.02;89.23
70103;BME280;57470;50.034;15.256;2022-12-13T04:24:13;99069.06;;;-4.92;89.52
70103;BME280;57470;50.034;15.256;2022-12-13T04:26:38;99071.81;;;-5.03;89.50
70103;BME280;57470;50.034;15.256;2022-12-13T04:29:04;99069.16;;;-4.98;89.58
70103;BME280;57470;50.034;15.256;2022-12-13T04:31:29;99072.69;;;-5.02;89.54
70103;BME280;57470;50.034;15.256;2022-12-13T04:33:54;99061.69;;;-5.21;89.68
70103;BME280;57470;50.034;15.256;2022-12-13T04:36:20;99066.78;;;-5.13;90.11
70103;BME280;57470;50.034;15.256;2022-12-13T04:38:45;99059.09;;;-5.21;89.62
70103;BME280;57470;50.034;15.256;2022-12-13T04:41:18;99053.91;;;-5.21;89.04
70103;BME280;57470;50.034;15.256;2022-12-13T04:43:44;99061.78;;;-5.28;89.15
70103;BME280;57470;50.034;15.256;2022-12-13T04:46:09;99065.34;;;-5.39;89.56
70103;BME280;57470;50.034;15.256;2022-12-13T04:48:35;99064.63;;;-5.53;89.66
70103;BME280;57470;50.034;15.256;2022-12-13T04:51:00;99055.22;;;-5.61;88.30
70103;BME280;57470;50.034;15.256;2022-12-13T04:53:27;99055.28;;;-5.64;88.22
70103;BME280;57470;50.034;15.256;2022-12-13T04:55:53;99058.06;;;-5.84;87.87
70103;BME280;57470;50.034;15.256;2022-12-13T04:58:18;99062.50;;;-5.95;88.18
70103;BME280;57470;50.034;15.256;2022-12-13T05:00:44;99059.16;;;-6.08;87.57
70103;BME280;57470;50.034;15.256;2022-12-13T05:03:09;99056.69;;;-6.22;87.64
70103;BME280;57470;50.034;15.256;2022-12-13T05:05:38;99059.22;;;-6.14;87.77
70103;BME280;57470;50.034;15.256;2022-12-13T05:08:04;99060.16;;;-6.21;87.99
70103;BME280;57470;50.034;15.256;2022-12-13T05:10:30;99054.97;;;-6.23;87.20
70103;BME280;57470;50.034;15.256;2022-12-13T05:12:57;99056.78;;;-6.34;86.37
70103;BME280;57470;50.034;15.256;2022-12-13T05:15:23;99058.75;;;-6.66;86.26
70103;BME280;57470;50.034;15.256;2022-12-13T05:17:48;99047.59;;;-6.76;85.93
70103;BME280;57470;50.034;15.256;2022-12-13T05:20:14;99052.03;;;-6.92;85.68
70103;BME280;57470;50.034;15.256;2022-12-13T05:22:39;99059.78;;;-6.93;86.01
70103;BME280;57470;50.034;15.256;2022-12-13T05:25:05;99054.59;;;-6.93;87.21
70103;BME280;57470;50.034;15.256;2022-12-13T05:27:31;99062.44;;;-7.08;86.83
70103;BME280;57470;50.034;15.256;2022-12-13T05:29:56;99063.31;;;-7.11;86.65
70103;BME280;57470;50.034;15.256;2022-12-13T05:32:21;99062.50;;;-7.19;86.72
70103;BME280;57470;50.034;15.256;2022-12-13T05:34:47;99065.94;;;-7.22;85.99
70103;BME280;57470;50.034;15.256;2022-12-13T05:37:12;99062.53;;;-7.28;85.63
70103;BME280;57470;50.034;15.256;2022-12-13T05:39:38;99063.47;;;-7.44;85.25
70103;BME280;57470;50.034;15.256;2022-12-13T05:42:03;99059.94;;;-7.33;85.84
70103;BME280;57470;50.034;15.256;2022-12-13T05:44:32;99072.94;;;-7.45;85.47
70103;BME280;57470;50.034;15.256;2022-12-13T05:46:58;99070.34;;;-7.45;85.06
70103;BME280;57470;50.034;15.256;2022-12-13T05:49:23;99068.66;;;-7.57;84.90
70103;BME280;57470;50.034;15.256;2022-12-13T05:51:48;99069.53;;;-7.65;85.03
70103;BME280;57470;50.034;15.256;2022-12-13T05:54:14;99065.22;;;-7.69;85.13
70103;BME280;57470;50.034;15.256;2022-12-13T05:56:39;99070.44;;;-7.81;85.14
70103;BME280;57470;50.034;15.256;2022-12-13T05:59:05;99072.16;;;-7.92;85.44
70103;BME280;57470;50.034;15.256;2022-12-13T06:01:30;99084.16;;;-7.69;85.76
70103;BME280;57470;50.034;15.256;2022-12-13T06:03:56;99082.50;;;-7.79;84.89
70103;BME280;57470;50.034;15.256;2022-12-13T06:06:21;99081.63;;;-8.04;84.15
70103;BME280;57470;50.034;15.256;2022-12-13T06:08:46;99084.22;;;-7.93;84.24
70103;BME280;57470;50.034;15.256;2022-12-13T06:11:12;99080.78;;;-8.03;84.58
70103;BME280;57470;50.034;15.256;2022-12-13T06:13:40;99079.91;;;-8.05;84.92
70103;BME280;57470;50.034;15.256;2022-12-13T06:16:06;99079.13;;;-8.32;84.52
70103;BME280;57470;50.034;15.256;2022-12-13T06:18:33;99079.13;;;-8.32;84.63
70103;BME280;57470;50.034;15.256;2022-12-13T06:21:04;99074.81;;;-8.53;83.48
70103;BME280;57470;50.034;15.256;2022-12-13T06:23:30;99082.53;;;-8.55;84.07
70103;BME280;57470;50.034;15.256;2022-12-13T06:25:56;99083.41;;;-8.53;85.07
70103;BME280;57470;50.034;15.256;2022-12-13T06:28:22;99081.69;;;-8.51;84.65
70103;BME280;57470;50.034;15.256;2022-12-13T06:30:47;99077.38;;;-8.62;84.24
70103;BME280;57470;50.034;15.256;2022-12-13T06:33:19;99082.53;;;-8.59;84.09
70103;BME280;57470;50.034;15.256;2022-12-13T06:35:45;99087.69;;;-8.49;85.05
70103;BME280;57470;50.034;15.256;2022-12-13T06:38:10;99084.22;;;-8.57;84.52
70103;BME280;57470;50.034;15.256;2022-12-13T06:40:37;99085.09;;;-8.55;84.88
70103;BME280;57470;50.034;15.256;2022-12-13T06:43:03;99084.22;;;-8.58;84.98
70103;BME280;57470;50.034;15.256;2022-12-13T06:45:28;99091.13;;;-8.62;84.67
70103;BME280;57470;50.034;15.256;2022-12-13T06:47:55;99092.78;;;-8.76;84.32
70103;BME280;57470;50.034;15.256;2022-12-13T06:50:21;99088.56;;;-8.53;84.72
70103;BME280;57470;50.034;15.256;2022-12-13T06:52:46;99099.72;;;-8.49;84.51
70103;BME280;57470;50.034;15.256;2022-12-13T06:55:12;99085.94;;;-8.79;84.11
70103;BME280;57470;50.034;15.256;2022-12-13T06:57:37;99097.97;;;-8.65;84.27
70103;BME280;57470;50.034;15.256;2022-12-13T07:00:03;99093.66;;;-8.82;83.95
70103;BME280;57470;50.034;15.256;2022-12-13T07:02:29;99090.22;;;-8.82;83.41
70103;BME280;57470;50.034;15.256;2022-12-13T07:04:55;99091.09;;;-8.77;83.86
70103;BME280;57470;50.034;15.256;2022-12-13T07:07:22;99099.66;;;-8.87;84.71
70103;BME280;57470;50.034;15.256;2022-12-13T07:09:47;99100.56;;;-8.61;84.54
70103;BME280;57470;50.034;15.256;2022-12-13T07:12:13;99101.38;;;-8.74;83.51
70103;BME280;57470;50.034;15.256;2022-12-13T07:14:38;99110.00;;;-8.67;84.25
70103;BME280;57470;50.034;15.256;2022-12-13T07:17:03;99108.25;;;-8.76;83.90
70103;BME280;57470;50.034;15.256;2022-12-13T07:19:30;99103.91;;;-8.97;83.77
70103;BME280;57470;50.034;15.256;2022-12-13T07:21:55;99116.00;;;-8.73;84.14
70103;BME280;57470;50.034;15.256;2022-12-13T07:24:21;99121.16;;;-8.73;83.43
70103;BME280;57470;50.034;15.256;2022-12-13T07:26:46;99118.63;;;-8.59;84.45
70103;BME280;57470;50.034;15.256;2022-12-13T07:29:11;99117.75;;;-8.60;83.97
70103;BME280;57470;50.034;15.256;2022-12-13T07:31:37;99116.06;;;-8.52;84.09
70103;BME280;57470;50.034;15.256;2022-12-13T07:34:02;99121.22;;;-8.43;83.84
70103;BME280;57470;50.034;15.256;2022-12-13T07:36:28;99115.19;;;-8.48;83.89
70103;BME280;57470;50.034;15.256;2022-12-13T07:38:55;99121.19;;;-8.58;83.42
70103;BME280;57470;50.034;15.256;2022-12-13T07:41:22;99121.19;;;-8.56;81.52
70103;BME280;57470;50.034;15.256;2022-12-13T07:43:48;99121.22;;;-8.40;80.45
70103;BME280;57470;50.034;15.256;2022-12-13T07:46:13;99125.53;;;-8.42;78.22
70103;BME280;57470;50.034;15.256;2022-12-13T07:48:39;99138.34;;;-7.46;77.19
70103;BME280;57470;50.034;15.256;2022-12-13T07:51:07;99117.75;;;-8.20;77.80
70103;BME280;57470;50.034;15.256;2022-12-13T07:53:34;99125.50;;;-8.40;80.28
70103;BME280;57470;50.034;15.256;2022-12-13T07:56:07;99121.22;;;-8.44;81.20
70103;BME280;57470;50.034;15.256;2022-12-13T07:58:33;99123.78;;;-8.46;81.90
70103;BME280;57470;50.034;15.256;2022-12-13T08:01:00;99133.84;;;-6.85;79.88
70103;BME280;57470;50.034;15.256;2022-12-13T08:03:27;99133.91;;;-7.01;77.56
70103;BME280;57470;50.034;15.256;2022-12-13T08:06:05;99132.63;;;-6.24;76.47
70103;BME280;57470;50.034;15.256;2022-12-13T08:08:31;99131.06;;;-4.71;69.62
70103;BME280;57470;50.034;15.256;2022-12-13T08:11:05;99125.81;;;-6.39;72.82
70103;BME280;57470;50.034;15.256;2022-12-13T08:13:32;99121.88;;;-7.07;75.13
70103;BME280;57470;50.034;15.256;2022-12-13T08:16:02;99128.88;;;-7.35;77.37
70103;BME280;57470;50.034;15.256;2022-12-13T08:18:28;99131.50;;;-7.61;78.47
70103;BME280;57470;50.034;15.256;2022-12-13T08:21:02;99128.94;;;-7.99;78.64
70103;BME280;57470;50.034;15.256;2022-12-13T08:23:32;99131.50;;;-7.83;79.58
70103;BME280;57470;50.034;15.256;2022-12-13T08:25:59;99136.69;;;-7.73;80.28
70103;BME280;57470;50.034;15.256;2022-12-13T08:28:25;99153.19;;;-5.16;76.10
70103;BME280;57470;50.034;15.256;2022-12-13T08:30:51;99148.72;;;-3.76;71.25
70103;BME280;57470;50.034;15.256;2022-12-13T08:33:17;99144.38;;;-4.32;71.20
70103;BME280;57470;50.034;15.256;2022-12-13T08:35:43;99152.38;;;-4.47;72.31
70103;BME280;57470;50.034;15.256;2022-12-13T08:38:09;99153.94;;;-4.36;72.88
70103;BME280;57470;50.034;15.256;2022-12-13T08:40:35;99157.09;;;-4.16;72.05
70103;BME280;57470;50.034;15.256;2022-12-13T08:43:00;99151.22;;;-4.28;72.26
70103;BME280;57470;50.034;15.256;2022-12-13T08:45:27;99148.56;;;-4.24;71.50
70103;BME280;57470;50.034;15.256;2022-12-13T08:47:52;99157.06;;;-4.77;73.00
70103;BME280;57470;50.034;15.256;2022-12-13T08:50:18;99150.63;;;-5.17;75.00
70103;BME280;57470;50.034;15.256;2022-12-13T08:52:44;99161.16;;;-5.33;75.35
70103;BME280;57470;50.034;15.256;2022-12-13T08:55:10;99154.94;;;-5.16;76.49
70103;BME280;57470;50.034;15.256;2022-12-13T08:57:37;99153.00;;;-4.99;76.75
70103;BME280;57470;50.034;15.256;2022-12-13T09:00:07;99153.44;;;-4.65;76.64
70103;BME280;57470;50.034;15.256;2022-12-13T09:02:33;99151.88;;;-2.68;73.99
70103;BME280;57470;50.034;15.256;2022-12-13T09:04:58;99150.28;;;-1.95;68.35
70103;BME280;57470;50.034;15.256;2022-12-13T09:07:23;99152.44;;;-3.42;71.84
70103;BME280;57470;50.034;15.256;2022-12-13T09:09:49;99152.38;;;-3.38;71.10
70103;BME280;57470;50.034;15.256;2022-12-13T09:12:14;99151.31;;;-4.34;76.11
70103;BME280;57470;50.034;15.256;2022-12-13T09:14:40;99153.09;;;-2.84;75.02
70103;BME280;57470;50.034;15.256;2022-12-13T09:17:05;99160.06;;;-1.69;71.10
70103;BME280;57470;50.034;15.256;2022-12-13T09:19:31;99160.47;;;-2.23;72.38
70103;BME280;57470;50.034;15.256;2022-12-13T09:21:56;99163.25;;;-1.92;72.70
70103;BME280;57470;50.034;15.256;2022-12-13T09:24:22;99159.59;;;-2.23;74.45
70103;BME280;57470;50.034;15.256;2022-12-13T09:26:47;99158.72;;;-1.50;72.44
70103;BME280;57470;50.034;15.256;2022-12-13T09:29:13;99158.16;;;-2.37;74.26
70103;BME280;57470;50.034;15.256;2022-12-13T09:31:40;99162.00;;;-2.14;73.48
70103;BME280;57470;50.034;15.256;2022-12-13T09:34:06;99163.38;;;-2.37;75.00
70103;BME280;57470;50.034;15.256;2022-12-13T09:36:31;99170.47;;;-1.68;74.09
70103;BME280;57470;50.034;15.256;2022-12-13T09:38:56;99161.59;;;-1.61;73.41
70103;BME280;57470;50.034;15.256;2022-12-13T09:41:42;99159.41;;;-2.14;75.68
70103;BME280;57470;50.034;15.256;2022-12-13T09:44:32;99168.75;;;-2.06;75.63
70103;BME280;57470;50.034;15.256;2022-12-13T09:47:01;99160.41;;;-1.83;75.12
70103;BME280;57470;50.034;15.256;2022-12-13T09:49:43;99165.13;;;-1.99;74.49
70103;BME280;57470;50.034;15.256;2022-12-13T09:52:13;99160.44;;;-2.21;75.07
70103;BME280;57470;50.034;15.256;2022-12-13T09:54:40;99158.81;;;-2.25;75.51
70103;BME280;57470;50.034;15.256;2022-12-13T09:57:14;99147.59;;;-1.92;75.18
70103;BME280;57470;50.034;15.256;2022-12-13T09:59:41;99141.44;;;-1.88;74.66
70103;BME280;57470;50.034;15.256;2022-12-13T10:02:27;99133.34;;;-1.77;73.96
70103;BME280;57470;50.034;15.256;2022-12-13T10:05:13;99146.88;;;-1.28;74.95
70103;BME280;57470;50.034;15.256;2022-12-13T10:07:40;99138.19;;;-1.98;74.32
70103;BME280;57470;50.034;15.256;2022-12-13T10:10:08;99136.28;;;-1.91;75.67
70103;BME280;57470;50.034;15.256;2022-12-13T10:12:36;99126.19;;;-2.83;76.15
70103;BME280;57470;50.034;15.256;2022-12-13T10:15:03;99139.63;;;-1.86;77.37
70103;BME280;57470;50.034;15.256;2022-12-13T10:17:34;99133.16;;;-2.44;76.13
70103;BME280;57470;50.034;15.256;2022-12-13T10:20:01;99139.09;;;-1.63;77.39
70103;BME280;57470;50.034;15.256;2022-12-13T10:22:28;99129.41;;;-1.95;77.32
70103;BME280;57470;50.034;15.256;2022-12-13T10:25:03;99126.63;;;-1.88;76.88
70103;BME280;57470;50.034;15.256;2022-12-13T10:27:56;99126.69;;;-1.54;78.40
70103;BME280;57470;50.034;15.256;2022-12-13T10:30:21;99116.94;;;-2.18;77.77
70103;BME280;57470;50.034;15.256;2022-12-13T10:32:52;99118.22;;;-1.99;78.34
70103;BME280;57470;50.034;15.256;2022-12-13T10:35:37;99111.97;;;-2.29;79.92
70103;BME280;57470;50.034;15.256;2022-12-13T10:40:34;99111.84;;;-1.87;79.65
70103;BME280;57470;50.034;15.256;2022-12-13T10:43:22;99108.56;;;-1.60;78.83
70103;BME280;57470;50.034;15.256;2022-12-13T10:48:22;99107.50;;;-2.23;80.18
70103;BME280;57470;50.034;15.256;2022-12-13T10:51:14;99111.28;;;-2.37;78.64
70103;BME280;57470;50.034;15.256;2022-12-13T10:53:47;99110.69;;;-1.75;79.49
70103;BME280;57470;50.034;15.256;2022-12-13T10:56:15;99109.13;;;-1.81;79.74
70103;BME280;57470;50.034;15.256;2022-12-13T10:58:43;99105.47;;;-1.74;78.78
70103;BME280;57470;50.034;15.256;2022-12-13T11:01:20;99094.69;;;-1.28;78.06
70103;BME280;57470;50.034;15.256;2022-12-13T11:04:31;99091.28;;;-1.98;78.42
70103;BME280;57470;50.034;15.256;2022-12-13T11:07:35;99092.31;;;-2.05;79.25
70103;BME280;57470;50.034;15.256;2022-12-13T11:10:23;99089.59;;;-1.65;78.45
70103;BME280;57470;50.034;15.256;2022-12-13T11:12:49;99090.97;;;-1.85;79.22
70103;BME280;57470;50.034;15.256;2022-12-13T11:15:18;99082.44;;;-1.92;77.67
70103;BME280;57470;50.034;15.256;2022-12-13T11:17:54;99083.13;;;-1.84;77.42
70103;BME280;57470;50.034;15.256;2022-12-13T11:20:26;99084.00;;;-1.85;78.96
70103;BME280;57470;50.034;15.256;2022-12-13T11:23:05;99070.88;;;-1.48;78.58
70103;BME280;57470;50.034;15.256;2022-12-13T11:25:42;99084.25;;;-1.28;77.73
70103;BME280;57470;50.034;15.256;2022-12-13T11:28:23;99082.44;;;-1.92;77.69
70103;BME280;57470;50.034;15.256;2022-12-13T11:31:10;99077.41;;;-1.64;79.27
70103;BME280;57470;50.034;15.256;2022-12-13T11:39:02;99074.38;;;-1.81;78.84
70103;BME280;57470;50.034;15.256;2022-12-13T11:44:15;99064.34;;;-1.63;78.23
70103;BME280;57470;50.034;15.256;2022-12-13T11:46:50;99065.09;;;-1.93;77.05
70103;BME280;57470;50.034;15.256;2022-12-13T11:49:31;99063.69;;;-1.07;75.89
70103;BME280;57470;50.034;15.256;2022-12-13T11:52:26;99064.88;;;-1.84;77.34
70103;BME280;57470;50.034;15.256;2022-12-13T11:55:10;99064.22;;;-1.26;77.07
70103;BME280;57470;50.034;15.256;2022-12-13T11:57:46;99052.53;;;-1.43;76.27
70103;BME280;57470;50.034;15.256;2022-12-13T12:02:52;99062.75;;;-1.70;76.67
70103;BME280;57470;50.034;15.256;2022-12-13T12:05:35;99064.34;;;-0.99;74.62
70103;BME280;57470;50.034;15.256;2022-12-13T12:10:45;99062.13;;;-0.54;73.41
70103;BME280;57470;50.034;15.256;2022-12-13T12:13:26;99062.75;;;-0.46;73.08
70103;BME280;57470;50.034;15.256;2022-12-13T12:18:41;99056.56;;;-1.02;76.81
70103;BME280;57470;50.034;15.256;2022-12-13T12:21:33;99058.53;;;-0.24;72.65
70103;BME280;57470;50.034;15.256;2022-12-13T12:27:12;99058.09;;;-0.36;72.86
70103;BME280;57470;50.034;15.256;2022-12-13T12:32:37;99041.59;;;-0.39;72.28
70103;BME280;57470;50.034;15.256;2022-12-13T12:43:18;99055.13;;;-0.82;74.44
70103;BME280;57470;50.034;15.256;2022-12-13T12:57:08;99046.09;;;-1.01;75.04
70103;BME280;57470;50.034;15.256;2022-12-13T12:59:47;99039.94;;;-1.29;76.04
70103;BME280;57470;50.034;15.256;2022-12-13T13:02:20;99034.63;;;-1.57;76.79
70103;BME280;57470;50.034;15.256;2022-12-13T13:04:52;99039.31;;;-1.37;76.82
70103;BME280;57470;50.034;15.256;2022-12-13T13:07:32;99030.34;;;-1.60;77.10
70103;BME280;57470;50.034;15.256;2022-12-13T13:10:00;99034.66;;;-1.26;77.11
70103;BME280;57470;50.034;15.256;2022-12-13T13:12:27;99036.69;;;-1.70;77.81
70103;BME280;57470;50.034;15.256;2022-12-13T13:14:54;99038.47;;;-1.39;77.36
70103;BME280;57470;50.034;15.256;2022-12-13T13:20:30;99039.94;;;-1.29;74.86
70103;BME280;57470;50.034;15.256;2022-12-13T13:22:57;99048.34;;;-1.51;75.51
70103;BME280;57470;50.034;15.256;2022-12-13T13:25:29;99056.50;;;-1.30;75.38
70103;BME280;57470;50.034;15.256;2022-12-13T13:28:04;99049.38;;;-1.56;76.87
70103;BME280;57470;50.034;15.256;2022-12-13T13:30:31;99048.22;;;-1.78;77.39
70103;BME280;57470;50.034;15.256;2022-12-13T13:32:57;99044.09;;;-1.53;76.83
70103;BME280;57470;50.034;15.256;2022-12-13T13:37:59;99039.50;;;-1.77;78.46
70103;BME280;57470;50.034;15.256;2022-12-13T13:40:33;99044.00;;;-2.18;78.54
70103;BME280;57470;50.034;15.256;2022-12-13T13:46:07;99058.94;;;-2.24;80.00
70103;BME280;57470;50.034;15.256;2022-12-13T13:49:15;99071.31;;;-1.97;79.05
70103;BME280;57470;50.034;15.256;2022-12-13T13:54:51;99078.28;;;-1.99;78.03
70103;BME280;57470;50.034;15.256;2022-12-13T13:58:00;99065.16;;;-1.96;76.67
70103;BME280;57470;50.034;15.256;2022-12-13T14:06:22;99071.09;;;-2.25;76.95
70103;BME280;57470;50.034;15.256;2022-12-13T14:15:30;99057.84;;;-2.53;77.59
70103;BME280;57470;50.034;15.256;2022-12-13T14:29:00;99070.19;;;-3.03;79.00
70103;BME280;57470;50.034;15.256;2022-12-13T14:31:46;99071.50;;;-3.23;78.86
70103;BME280;57470;50.034;15.256;2022-12-13T14:34:32;99076.75;;;-3.26;79.89
70103;BME280;57470;50.034;15.256;2022-12-13T14:37:02;99074.53;;;-3.46;80.49
70103;BME280;57470;50.034;15.256;2022-12-13T14:39:29;99080.91;;;-3.64;79.05
70103;BME280;57470;50.034;15.256;2022-12-13T14:42:01;99081.09;;;-3.74;79.10
70103;BME280;57470;50.034;15.256;2022-12-13T14:44:31;99069.06;;;-3.79;79.76
70103;BME280;57470;50.034;15.256;2022-12-13T14:47:04;99071.97;;;-3.95;80.24